Time;durP1;ratioP1;P1;durP2;ratioP2;P2;SDS_P1;SDS_P2;PMS_P1;PMS_P2;Temp;Humidity;BMP_temperature;BMP_pressure;BME280_temperature;BME280_humidity;BME280_pressure;Samples;Min_cycle;Max_cycle;Signal;HPM_P1;HPM_P2
2022/02/27 00:01:00;;;;;;;;;;;1.50;99.90;;;;;;5073395;28;20467;-58
2022/02/27 00:03:26;;;;;;;;;;;1.50;99.90;;;;;;5073157;28;19920;-59
2022/02/27 00:05:53;;;;;;;;;;;1.50;99.90;;;;;;5073227;28;19973;-61
2022/02/27 00:08:19;;;;;;;;;;;1.50;99.90;;;;;;5072975;28;19920;-56
2022/02/27 00:10:48;;;;;;;;;;;1.50;99.90;;;;;;5073270;28;19920;-58
2022/02/27 00:13:14;;;;;;;;;;;1.60;99.90;;;;;;5072830;28;20395;-58
2022/02/27 00:15:41;;;;;;;;;;;1.60;96.00;;;;;;5072568;28;19921;-60
2022/02/27 00:18:07;;;;;;;;;;;1.70;16.50;;;;;;5072903;28;19947;-61
2022/02/27 00:20:34;;;;;;;;;;;1.70;1.00;;;;;;5072910;28;19982;-60
2022/02/27 00:23:00;;;;;;;;;;;1.70;1.00;;;;;;5073103;28;20329;-60
2022/02/27 00:25:27;;;;;;;;;;;1.70;1.00;;;;;;5072831;28;20337;-56
2022/02/27 00:27:55;;;;;;;;;;;1.70;1.00;;;;;;5072356;28;19924;-55
2022/02/27 00:30:21;;;;;;;;;;;1.80;1.00;;;;;;5072491;28;19924;-58
2022/02/27 00:32:48;;;;;;;;;;;1.80;1.00;;;;;;5073172;28;19928;-59
2022/02/27 00:35:14;;;;;;;;;;;1.80;1.00;;;;;;5072860;28;19951;-58
2022/02/27 00:37:41;;;;;;;;;;;1.80;1.00;;;;;;5072649;28;19928;-57
2022/02/27 00:40:08;;;;;;;;;;;1.80;1.00;;;;;;5073051;28;20345;-59
2022/02/27 00:42:35;;;;;;;;;;;1.80;1.00;;;;;;5072877;28;19927;-59
2022/02/27 00:45:03;;;;;;;;;;;1.80;1.00;;;;;;5072931;28;19924;-55
2022/02/27 00:47:30;;;;;;;;;;;1.80;1.00;;;;;;5072748;28;19924;-55
2022/02/27 00:49:56;;;;;;;;;;;1.80;1.00;;;;;;5072964;28;19920;-54
2022/02/27 00:52:23;;;;;;;;;;;1.80;99.90;;;;;;5072770;28;20545;-53
2022/02/27 00:54:49;;;;;;;;;;;1.80;99.90;;;;;;5072494;28;19924;-56
2022/02/27 00:57:16;;;;;;;;;;;1.90;99.90;;;;;;5072546;28;20360;-55
2022/02/27 00:59:44;;;;;;;;;;;1.90;99.90;;;;;;5075329;28;19920;-55
2022/02/27 01:02:12;;;;;;;;;;;1.90;99.90;;;;;;5073081;28;20015;-56
2022/02/27 01:04:38;;;;;;;;;;;1.80;99.90;;;;;;5072382;28;19927;-59
2022/02/27 01:07:05;;;;;;;;;;;1.80;99.90;;;;;;5072680;28;19920;-56
2022/02/27 01:09:32;;;;;;;;;;;1.70;1.00;;;;;;5072491;28;19920;-56
2022/02/27 01:11:58;;;;;;;;;;;1.70;1.00;;;;;;5072298;28;20413;-54
2022/02/27 01:14:25;;;;;;;;;;;1.60;1.00;;;;;;5073109;28;19924;-55
2022/02/27 01:16:52;;;;;;;;;;;1.60;1.00;;;;;;5073030;28;19921;-59
2022/02/27 01:19:19;;;;;;;;;;;1.60;1.00;;;;;;5074220;28;19927;-57
2022/02/27 01:21:46;;;;;;;;;;;1.50;1.00;;;;;;5073694;28;19966;-57
2022/02/27 01:24:12;;;;;;;;;;;1.50;15.30;;;;;;5072414;28;19974;-53
2022/02/27 01:26:39;;;;;;;;;;;1.50;94.00;;;;;;5071944;28;19920;-54
2022/02/27 01:29:05;;;;;;;;;;;1.50;99.90;;;;;;5072753;28;19989;-55
2022/02/27 01:31:32;;;;;;;;;;;1.50;99.90;;;;;;5072403;28;19924;-56
2022/02/27 01:33:58;;;;;;;;;;;1.50;99.90;;;;;;5072126;28;19921;-56
2022/02/27 01:36:26;;;;;;;;;;;1.50;99.90;;;;;;5072046;28;20374;-56
2022/02/27 01:38:53;;;;;;;;;;;1.50;99.90;;;;;;5072151;28;19950;-56
2022/02/27 01:41:19;;;;;;;;;;;1.50;99.90;;;;;;5072044;28;19924;-55
2022/02/27 01:43:46;;;;;;;;;;;1.50;99.90;;;;;;5071945;28;19920;-56
2022/02/27 01:46:15;;;;;;;;;;;1.50;99.90;;;;;;5071808;28;19927;-56
2022/02/27 01:48:41;;;;;;;;;;;1.50;99.90;;;;;;5071736;28;20436;-56
2022/02/27 01:51:08;;;;;;;;;;;1.40;99.90;;;;;;5072123;28;19974;-57
2022/02/27 01:53:35;;;;;;;;;;;1.40;99.90;;;;;;5071950;28;20436;-59
2022/02/27 01:56:02;;;;;;;;;;;1.40;99.90;;;;;;5071710;28;19920;-56
2022/02/27 01:58:29;;;;;;;;;;;1.30;99.90;;;;;;5071733;28;20371;-59
2022/02/27 02:00:57;;;;;;;;;;;1.30;1.00;;;;;;5072098;28;19970;-54
2022/02/27 02:03:23;;;;;;;;;;;1.30;1.00;;;;;;5072010;28;19920;-54
2022/02/27 02:05:50;;;;;;;;;;;1.30;1.00;;;;;;5071699;28;19924;-56
2022/02/27 02:08:17;;;;;;;;;;;1.30;1.00;;;;;;5071686;28;19973;-56
2022/02/27 02:10:45;;;;;;;;;;;1.30;1.00;;;;;;5071784;28;19924;-53
2022/02/27 02:13:12;;;;;;;;;;;1.30;1.00;;;;;;5072007;28;20283;-55
2022/02/27 02:15:39;;;;;;;;;;;1.30;1.00;;;;;;5071684;28;19927;-55
2022/02/27 02:18:06;;;;;;;;;;;1.30;1.00;;;;;;5071807;28;19946;-55
2022/02/27 02:20:34;;;;;;;;;;;1.30;1.00;;;;;;5071548;28;20444;-56
2022/02/27 02:23:01;;;;;;;;;;;1.30;1.00;;;;;;5071578;28;19977;-55
2022/02/27 02:25:27;;;;;;;;;;;1.30;99.90;;;;;;5071651;28;19921;-55
2022/02/27 02:27:54;;;;;;;;;;;1.30;99.90;;;;;;5071352;28;20420;-56
2022/02/27 02:30:20;;;;;;;;;;;1.30;99.90;;;;;;5071727;28;19966;-57
2022/02/27 02:32:48;;;;;;;;;;;1.30;99.90;;;;;;5071519;28;19920;-56
2022/02/27 02:35:15;;;;;;;;;;;1.30;99.90;;;;;;5071578;28;19920;-53
2022/02/27 02:37:43;;;;;;;;;;;1.30;99.90;;;;;;5073013;28;19928;-57
2022/02/27 02:40:11;;;;;;;;;;;1.30;99.90;;;;;;5075246;28;19926;-55
2022/02/27 02:42:40;;;;;;;;;;;1.20;99.90;;;;;;5074991;28;19924;-57
2022/02/27 02:45:08;;;;;;;;;;;1.20;99.90;;;;;;5075226;28;19974;-53
2022/02/27 02:47:35;;;;;;;;;;;1.20;1.00;;;;;;5074932;28;19920;-58
2022/02/27 02:50:01;;;;;;;;;;;1.20;1.00;;;;;;5075605;28;20349;-58
2022/02/27 02:52:28;;;;;;;;;;;1.20;1.00;;;;;;5075290;28;20469;-55
2022/02/27 02:54:55;;;;;;;;;;;1.10;1.00;;;;;;5074994;28;19924;-58
2022/02/27 02:57:22;;;;;;;;;;;1.10;1.00;;;;;;5075438;28;19935;-59
2022/02/27 02:59:50;;;;;;;;;;;1.10;1.00;;;;;;5075268;28;20352;-56
2022/02/27 03:02:16;;;;;;;;;;;1.20;1.00;;;;;;5075240;28;20391;-55
2022/02/27 03:04:43;;;;;;;;;;;1.10;1.00;;;;;;5074409;28;19920;-56
2022/02/27 03:07:09;;;;;;;;;;;1.10;1.00;;;;;;5074827;28;19920;-52
2022/02/27 03:09:36;;;;;;;;;;;1.20;1.00;;;;;;5074759;28;19928;-54
2022/02/27 03:12:04;;;;;;;;;;;1.20;1.00;;;;;;5074660;28;19920;-55
2022/02/27 03:14:31;;;;;;;;;;;1.20;1.00;;;;;;5074598;28;19927;-55
2022/02/27 03:16:57;;;;;;;;;;;1.20;1.00;;;;;;5074218;28;20371;-53
2022/02/27 03:19:24;;;;;;;;;;;1.10;1.00;;;;;;5074807;28;19928;-53
2022/02/27 03:21:50;;;;;;;;;;;1.20;1.00;;;;;;5074462;28;20199;-56
2022/02/27 03:24:17;;;;;;;;;;;1.10;1.00;;;;;;5074460;28;19920;-52
2022/02/27 03:26:45;;;;;;;;;;;1.10;1.00;;;;;;5074126;28;19920;-52
2022/02/27 03:29:13;;;;;;;;;;;1.10;1.00;;;;;;5074326;28;19924;-53
2022/02/27 03:31:39;;;;;;;;;;;1.10;1.00;;;;;;5074141;28;19920;-53
2022/02/27 03:34:06;;;;;;;;;;;1.10;1.00;;;;;;5074322;28;19925;-53
2022/02/27 03:36:32;;;;;;;;;;;1.00;1.00;;;;;;5074208;28;20363;-58
2022/02/27 03:38:59;;;;;;;;;;;1.00;1.00;;;;;;5073985;28;19973;-54
2022/02/27 03:41:26;;;;;;;;;;;1.00;1.00;;;;;;5074044;28;19920;-52
2022/02/27 03:43:52;;;;;;;;;;;0.90;1.00;;;;;;5073756;28;19920;-54
2022/02/27 03:46:20;;;;;;;;;;;0.80;1.00;;;;;;5073735;28;20019;-52
2022/02/27 03:48:47;;;;;;;;;;;0.80;1.00;;;;;;5072897;28;19920;-54
2022/02/27 03:51:13;;;;;;;;;;;0.70;1.00;;;;;;5074137;28;19920;-56
2022/02/27 03:53:40;;;;;;;;;;;0.70;7.30;;;;;;5073796;28;19950;-58
2022/02/27 03:56:06;;;;;;;;;;;0.60;99.90;;;;;;5073840;28;20337;-57
2022/02/27 03:58:33;;;;;;;;;;;0.40;99.90;;;;;;5073776;28;20365;-54
2022/02/27 04:00:59;;;;;;;;;;;0.30;99.90;;;;;;5073252;28;19920;-54
2022/02/27 04:03:27;;;;;;;;;;;0.30;1.00;;;;;;5073923;28;19921;-56
2022/02/27 04:05:53;;;;;;;;;;;0.30;99.90;;;;;;5073425;28;19921;-54
2022/02/27 04:08:20;;;;;;;;;;;0.20;99.90;;;;;;5073400;28;20379;-57
2022/02/27 04:10:46;;;;;;;;;;;0.10;1.00;;;;;;5073390;28;19920;-53
2022/02/27 04:13:13;;;;;;;;;;;0.10;99.90;;;;;;5073420;28;20371;-56
2022/02/27 04:15:39;;;;;;;;;;;0.10;99.90;;;;;;5073093;28;19924;-56
2022/02/27 04:18:06;;;;;;;;;;;0.10;99.90;;;;;;5073568;28;20287;-58
2022/02/27 04:20:34;;;;;;;;;;;0.10;1.00;;;;;;5073297;28;19920;-55
2022/02/27 04:23:00;;;;;;;;;;;0.00;1.00;;;;;;5073361;28;19920;-55
2022/02/27 04:25:27;;;;;;;;;;;0.10;1.00;;;;;;5072872;28;20375;-55
2022/02/27 04:27:55;;;;;;;;;;;0.00;1.00;;;;;;5072857;28;19924;-57
2022/02/27 04:30:22;;;;;;;;;;;0.00;1.00;;;;;;5073358;28;20003;-53
2022/02/27 04:32:49;;;;;;;;;;;0.00;1.00;;;;;;5073290;28;19966;-56
2022/02/27 04:35:16;;;;;;;;;;;0.00;1.00;;;;;;5072953;28;19974;-56
2022/02/27 04:37:44;;;;;;;;;;;-0.10;1.00;;;;;;5072779;28;19920;-57
2022/02/27 04:40:11;;;;;;;;;;;0.00;1.00;;;;;;5073307;28;19924;-59
2022/02/27 04:42:39;;;;;;;;;;;0.00;1.00;;;;;;5073290;28;19928;-55
2022/02/27 04:45:06;;;;;;;;;;;0.00;1.00;;;;;;5072705;28;19920;-54
2022/02/27 04:47:32;;;;;;;;;;;-0.10;1.00;;;;;;5072782;28;19994;-55
2022/02/27 04:49:59;;;;;;;;;;;-0.10;1.00;;;;;;5072589;28;19920;-54
2022/02/27 04:52:25;;;;;;;;;;;-0.10;1.00;;;;;;5072786;28;19942;-52
2022/02/27 04:54:53;;;;;;;;;;;-0.10;1.00;;;;;;5072570;28;19924;-53
2022/02/27 04:57:20;;;;;;;;;;;-0.10;1.00;;;;;;5072497;28;20524;-56
2022/02/27 04:59:46;;;;;;;;;;;0.00;99.90;;;;;;5072376;28;19920;-51
2022/02/27 05:02:13;;;;;;;;;;;-0.10;99.90;;;;;;5072849;28;19974;-54
2022/02/27 05:04:39;;;;;;;;;;;-0.10;99.90;;;;;;5072331;28;19920;-55
2022/02/27 05:07:06;;;;;;;;;;;-0.10;1.00;;;;;;5072373;28;19924;-57
2022/02/27 05:09:32;;;;;;;;;;;-0.20;1.00;;;;;;5072156;28;19920;-55
2022/02/27 05:12:00;;;;;;;;;;;-0.20;1.00;;;;;;5072079;28;20560;-52
2022/02/27 05:14:27;;;;;;;;;;;-0.20;38.40;;;;;;5072790;28;19929;-54
2022/02/27 05:16:53;;;;;;;;;;;-0.10;20.70;;;;;;5072214;28;19974;-56
2022/02/27 05:19:20;;;;;;;;;;;-0.20;1.00;;;;;;5072568;28;19974;-55
2022/02/27 05:21:46;;;;;;;;;;;-0.20;1.00;;;;;;5071957;28;20041;-55
2022/02/27 05:24:13;;;;;;;;;;;-0.20;1.00;;;;;;5072283;28;20383;-57
2022/02/27 05:26:39;;;;;;;;;;;-0.20;1.00;;;;;;5072208;28;19950;-56
2022/02/27 05:29:07;;;;;;;;;;;-0.20;1.00;;;;;;5071890;28;20263;-56
2022/02/27 05:31:34;;;;;;;;;;;-0.20;1.00;;;;;;5072255;28;19928;-54
2022/02/27 05:34:00;;;;;;;;;;;-0.20;1.00;;;;;;5072024;28;19924;-58
2022/02/27 05:36:27;;;;;;;;;;;-0.20;1.00;;;;;;5071946;28;20344;-55
2022/02/27 05:38:53;;;;;;;;;;;-0.20;1.00;;;;;;5071760;28;20352;-57
2022/02/27 05:41:20;;;;;;;;;;;-0.20;1.00;;;;;;5072423;28;19974;-56
2022/02/27 05:43:46;;;;;;;;;;;-0.30;1.00;;;;;;5072340;28;19920;-57
2022/02/27 05:46:14;;;;;;;;;;;-0.30;1.00;;;;;;5072204;28;19924;-57
2022/02/27 05:48:41;;;;;;;;;;;-0.40;99.90;;;;;;5071976;28;19920;-56
2022/02/27 05:51:07;;;;;;;;;;;-0.40;99.90;;;;;;5072066;28;19920;-52
2022/02/27 05:53:34;;;;;;;;;;;-0.40;99.90;;;;;;5072084;28;21211;-56
2022/02/27 05:56:00;;;;;;;;;;;-0.40;99.90;;;;;;5071864;28;19921;-55
2022/02/27 05:58:27;;;;;;;;;;;-0.40;99.90;;;;;;5072035;28;19920;-56
2022/02/27 06:00:54;;;;;;;;;;;-0.40;99.90;;;;;;5071740;28;19924;-59
2022/02/27 06:03:22;;;;;;;;;;;-0.40;99.90;;;;;;5072094;28;19920;-58
2022/02/27 06:05:49;;;;;;;;;;;-0.40;99.90;;;;;;5071541;28;19921;-59
2022/02/27 06:08:15;;;;;;;;;;;-0.40;99.90;;;;;;5072300;28;19921;-60
2022/02/27 06:10:42;;;;;;;;;;;-0.40;99.90;;;;;;5072316;28;20344;-58
2022/02/27 06:13:08;;;;;;;;;;;-0.40;1.00;;;;;;5074883;28;19924;-59
2022/02/27 06:15:35;;;;;;;;;;;-0.40;1.00;;;;;;5076200;28;19920;-59
2022/02/27 06:18:01;;;;;;;;;;;-0.40;1.00;;;;;;5075753;28;19920;-59
2022/02/27 06:20:29;;;;;;;;;;;-0.40;1.00;;;;;;5076283;28;19924;-59
2022/02/27 06:22:56;;;;;;;;;;;-0.30;1.00;;;;;;5076431;28;20010;-58
2022/02/27 06:25:22;;;;;;;;;;;-0.30;99.90;;;;;;5075984;28;20302;-58
2022/02/27 06:27:49;;;;;;;;;;;-0.30;99.90;;;;;;5075463;28;20307;-59
2022/02/27 06:30:16;;;;;;;;;;;-0.30;99.90;;;;;;5075898;28;19921;-59
2022/02/27 06:32:43;;;;;;;;;;;-0.30;99.90;;;;;;5075644;28;19966;-58
2022/02/27 06:35:10;;;;;;;;;;;-0.20;42.40;;;;;;5074968;28;19973;-56
2022/02/27 06:37:38;;;;;;;;;;;-0.20;1.00;;;;;;5075425;28;19921;-59
2022/02/27 06:40:05;;;;;;;;;;;-0.20;99.90;;;;;;5075116;28;19920;-55
2022/02/27 06:42:32;;;;;;;;;;;-0.20;99.90;;;;;;5075275;28;19966;-60
2022/02/27 06:44:58;;;;;;;;;;;-0.30;1.00;;;;;;5075181;28;20394;-59
2022/02/27 06:47:25;;;;;;;;;;;-0.30;1.00;;;;;;5075002;28;19974;-56
2022/02/27 06:49:51;;;;;;;;;;;-0.30;99.90;;;;;;5074851;28;19978;-59
2022/02/27 06:52:18;;;;;;;;;;;-0.20;99.90;;;;;;5075415;28;19982;-59
2022/02/27 06:54:46;;;;;;;;;;;-0.20;1.00;;;;;;5074922;28;20440;-57
2022/02/27 06:57:12;;;;;;;;;;;-0.10;99.90;;;;;;5075078;28;19920;-53
2022/02/27 06:59:39;;;;;;;;;;;-0.10;1.00;;;;;;5074906;28;19921;-54
2022/02/27 07:02:07;;;;;;;;;;;-0.10;99.90;;;;;;5074781;28;19966;-58
2022/02/27 07:04:34;;;;;;;;;;;0.00;1.00;;;;;;5074686;28;20440;-57
2022/02/27 07:07:00;;;;;;;;;;;0.00;99.90;;;;;;5074686;28;19920;-55
2022/02/27 07:09:27;;;;;;;;;;;0.00;52.30;;;;;;5074489;28;19966;-57
2022/02/27 07:11:55;;;;;;;;;;;0.10;1.00;;;;;;5074612;28;19920;-51
2022/02/27 07:14:21;;;;;;;;;;;0.10;99.90;;;;;;5075280;28;20291;-56
2022/02/27 07:16:48;;;;;;;;;;;0.20;1.00;;;;;;5074377;28;19973;-57
2022/02/27 07:19:14;;;;;;;;;;;0.30;99.90;;;;;;5074851;28;19978;-56
2022/02/27 07:21:41;;;;;;;;;;;0.40;99.90;;;;;;5074023;28;19981;-56
2022/02/27 07:24:07;;;;;;;;;;;0.50;1.00;;;;;;5074397;28;19966;-56
2022/02/27 07:26:34;;;;;;;;;;;0.50;99.90;;;;;;5074378;28;20345;-54
2022/02/27 07:29:02;;;;;;;;;;;0.60;99.90;;;;;;5074194;28;19921;-59
2022/02/27 07:31:30;;;;;;;;;;;0.70;1.00;;;;;;5074339;28;19982;-55
2022/02/27 07:33:56;;;;;;;;;;;0.80;99.90;;;;;;5074256;28;19926;-52
2022/02/27 07:36:23;;;;;;;;;;;0.80;65.90;;;;;;5074342;28;19924;-56
2022/02/27 07:38:50;;;;;;;;;;;0.90;1.00;;;;;;5074365;28;20383;-56
2022/02/27 07:41:16;;;;;;;;;;;1.00;1.00;;;;;;5074433;28;19920;-58
2022/02/27 07:43:43;;;;;;;;;;;1.10;99.90;;;;;;5074072;28;19978;-58
2022/02/27 07:46:11;;;;;;;;;;;1.20;99.90;;;;;;5073824;28;19924;-56
2022/02/27 07:48:37;;;;;;;;;;;1.30;99.90;;;;;;5074392;28;19928;-55
2022/02/27 07:51:04;;;;;;;;;;;1.40;99.90;;;;;;5074001;28;19981;-57
2022/02/27 07:53:31;;;;;;;;;;;1.40;1.00;;;;;;5074164;28;19943;-55
2022/02/27 07:55:57;;;;;;;;;;;1.50;1.00;;;;;;5073439;28;19921;-56
2022/02/27 07:58:24;;;;;;;;;;;1.50;1.00;;;;;;5073825;28;19920;-59
2022/02/27 08:00:50;;;;;;;;;;;1.60;1.00;;;;;;5074142;28;20349;-57
2022/02/27 08:03:18;;;;;;;;;;;1.60;1.00;;;;;;5074447;28;19920;-56
2022/02/27 08:05:45;;;;;;;;;;;1.70;1.00;;;;;;5073943;28;19924;-57
2022/02/27 08:08:12;;;;;;;;;;;1.80;99.90;;;;;;5074344;28;19993;-59
2022/02/27 08:10:38;;;;;;;;;;;1.90;99.90;;;;;;5073554;28;19920;-58
2022/02/27 08:13:05;;;;;;;;;;;2.00;99.90;;;;;;5072994;28;19977;-58
2022/02/27 08:15:31;;;;;;;;;;;2.00;99.90;;;;;;5073705;28;19966;-58
2022/02/27 08:17:58;;;;;;;;;;;2.00;99.90;;;;;;5073311;28;20042;-59
2022/02/27 08:20:26;;;;;;;;;;;2.10;99.90;;;;;;5073313;28;19924;-58
2022/02/27 08:22:52;;;;;;;;;;;2.20;99.90;;;;;;5073481;28;19920;-57
2022/02/27 08:25:19;;;;;;;;;;;2.30;99.90;;;;;;5072647;28;20333;-57
2022/02/27 08:27:46;;;;;;;;;;;2.40;99.90;;;;;;5073076;28;20571;-58
2022/02/27 08:30:13;;;;;;;;;;;2.60;99.90;;;;;;5073159;28;20294;-56
2022/02/27 08:32:39;;;;;;;;;;;2.70;99.90;;;;;;5073075;28;20312;-57
2022/02/27 08:35:06;;;;;;;;;;;2.80;1.00;;;;;;5071817;28;20414;-54
2022/02/27 08:37:34;;;;;;;;;;;3.00;1.00;;;;;;5072790;28;20337;-57
2022/02/27 08:40:00;;;;;;;;;;;3.10;1.00;;;;;;5072657;28;19966;-58
2022/02/27 08:42:30;;;;;;;;;;;3.20;1.00;;;;;;5073450;28;19947;-55
2022/02/27 08:44:56;;;;;;;;;;;3.30;1.00;;;;;;5072722;28;20012;-58
2022/02/27 08:47:23;;;;;;;;;;;3.40;1.00;;;;;;5072828;28;19920;-56
2022/02/27 08:49:49;;;;;;;;;;;3.50;1.00;;;;;;5072491;28;19970;-57
2022/02/27 08:52:16;;;;;;;;;;;3.70;1.00;;;;;;5072659;28;20349;-58
2022/02/27 08:54:46;;;;;;;;;;;3.90;1.00;;;;;;5072688;28;19966;-58
2022/02/27 08:57:12;;;;;;;;;;;4.00;1.00;;;;;;5072798;28;19971;-58
2022/02/27 08:59:39;;;;;;;;;;;4.20;1.00;;;;;;5072682;28;19920;-58
2022/02/27 09:02:06;;;;;;;;;;;4.20;1.00;;;;;;5072933;28;19920;-57
2022/02/27 09:04:32;;;;;;;;;;;4.20;99.90;;;;;;5072662;28;20390;-55
2022/02/27 09:06:59;;;;;;;;;;;4.30;1.00;;;;;;5072397;28;19920;-59
2022/02/27 09:09:25;;;;;;;;;;;4.40;99.90;;;;;;5072830;28;19932;-57
2022/02/27 09:11:53;;;;;;;;;;;4.50;99.90;;;;;;5072586;28;19920;-58
2022/02/27 09:14:20;;;;;;;;;;;4.50;99.90;;;;;;5072685;28;19920;-56
2022/02/27 09:16:46;;;;;;;;;;;4.60;99.90;;;;;;5072575;28;20337;-58
2022/02/27 09:19:13;;;;;;;;;;;4.50;99.90;;;;;;5072298;28;19989;-56
2022/02/27 09:21:39;;;;;;;;;;;4.60;99.90;;;;;;5072324;28;19927;-56
2022/02/27 09:24:06;;;;;;;;;;;4.70;99.90;;;;;;5072422;28;19921;-55
2022/02/27 09:26:32;;;;;;;;;;;4.70;99.90;;;;;;5071991;28;19924;-55
2022/02/27 09:29:00;;;;;;;;;;;4.90;99.90;;;;;;5072172;28;20391;-58
2022/02/27 09:31:28;;;;;;;;;;;4.90;99.90;;;;;;5072155;28;19974;-65
2022/02/27 09:33:54;;;;;;;;;;;5.00;99.90;;;;;;5072157;28;19974;-59
2022/02/27 09:36:23;;;;;;;;;;;5.10;99.90;;;;;;5071905;28;19921;-57
2022/02/27 09:38:50;;;;;;;;;;;5.10;99.90;;;;;;5072576;28;20356;-58
2022/02/27 09:41:16;;;;;;;;;;;5.20;99.90;;;;;;5072282;28;19974;-57
2022/02/27 09:43:44;;;;;;;;;;;5.40;99.90;;;;;;5071901;28;19924;-58
2022/02/27 09:46:14;;;;;;;;;;;5.60;99.90;;;;;;5071625;28;19928;-55
2022/02/27 09:48:41;;;;;;;;;;;5.70;99.90;;;;;;5075954;28;19924;-60
2022/02/27 09:51:07;;;;;;;;;;;5.80;99.90;;;;;;5076553;28;19967;-55
2022/02/27 09:53:34;;;;;;;;;;;6.00;99.90;;;;;;5076557;28;19920;-58
2022/02/27 09:56:00;;;;;;;;;;;6.20;99.90;;;;;;5076078;28;19920;-60
2022/02/27 09:58:27;;;;;;;;;;;6.30;99.90;;;;;;5075945;28;20370;-59
2022/02/27 10:00:54;;;;;;;;;;;6.40;99.90;;;;;;5076018;28;20383;-60
2022/02/27 10:03:27;;;;;;;;;;;6.40;99.90;;;;;;5075606;28;19921;-59
2022/02/27 10:05:59;;;;;;;;;;;6.40;99.90;;;;;;5076052;28;19974;-59
2022/02/27 10:08:36;;;;;;;;;;;6.60;99.90;;;;;;5077152;28;19920;-61
2022/02/27 10:11:02;;;;;;;;;;;6.70;99.90;;;;;;5080346;28;19921;-60
2022/02/27 10:13:33;;;;;;;;;;;6.90;99.90;;;;;;5075833;28;20337;-60
2022/02/27 10:16:06;;;;;;;;;;;7.10;99.90;;;;;;5076347;28;20011;-60
2022/02/27 10:18:45;;;;;;;;;;;7.20;99.90;;;;;;5076848;28;19920;-60
2022/02/27 10:21:19;;;;;;;;;;;7.30;99.90;;;;;;5076623;28;19920;-60
2022/02/27 10:23:46;;;;;;;;;;;7.30;99.90;;;;;;5075819;28;19924;-61
2022/02/27 10:26:22;;;;;;;;;;;7.40;99.90;;;;;;5075522;28;19924;-60
2022/02/27 10:29:03;;;;;;;;;;;7.40;99.90;;;;;;5075628;28;19921;-59
2022/02/27 10:31:29;;;;;;;;;;;7.50;99.90;;;;;;5075797;28;19946;-58
2022/02/27 10:33:58;;;;;;;;;;;7.50;99.90;;;;;;5070992;28;19982;-60
2022/02/27 10:36:25;;;;;;;;;;;7.60;99.90;;;;;;5074433;28;19927;-57
2022/02/27 10:38:53;;;;;;;;;;;7.80;99.90;;;;;;5074658;28;20367;-57
2022/02/27 10:41:21;;;;;;;;;;;7.90;99.90;;;;;;5075042;28;19967;-66
2022/02/27 10:43:48;;;;;;;;;;;8.00;99.90;;;;;;5074841;28;19920;-67
2022/02/27 10:46:17;;;;;;;;;;;8.10;99.90;;;;;;5074344;28;19974;-65
2022/02/27 10:48:44;;;;;;;;;;;8.00;99.90;;;;;;5074652;28;19924;-66
2022/02/27 10:51:13;;;;;;;;;;;8.10;99.90;;;;;;5074901;28;20283;-64
2022/02/27 10:53:40;;;;;;;;;;;8.20;99.90;;;;;;5074131;28;19973;-65
2022/02/27 10:56:08;;;;;;;;;;;8.20;99.90;;;;;;5074528;28;20385;-65
2022/02/27 10:58:40;;;;;;;;;;;8.30;99.90;;;;;;5073995;28;19924;-65
2022/02/27 11:01:07;;;;;;;;;;;8.30;99.90;;;;;;5074627;28;19927;-65
2022/02/27 11:03:36;;;;;;;;;;;8.30;99.90;;;;;;5074866;28;20341;-65
2022/02/27 11:06:02;;;;;;;;;;;8.20;99.90;;;;;;5074713;28;19920;-66
2022/02/27 11:08:30;;;;;;;;;;;8.10;99.90;;;;;;5075317;28;19966;-66
2022/02/27 11:10:57;;;;;;;;;;;8.10;99.90;;;;;;5074048;28;20325;-65
2022/02/27 11:13:24;;;;;;;;;;;8.20;99.90;;;;;;5074387;28;19973;-66
2022/02/27 11:15:50;;;;;;;;;;;8.20;99.90;;;;;;5073283;28;20391;-64
2022/02/27 11:18:17;;;;;;;;;;;8.10;99.90;;;;;;5074136;28;19924;-64
2022/02/27 11:20:44;;;;;;;;;;;8.20;99.90;;;;;;5073779;28;19920;-64
2022/02/27 11:23:11;;;;;;;;;;;8.30;99.90;;;;;;5074304;28;19920;-64
2022/02/27 11:25:39;;;;;;;;;;;8.30;99.90;;;;;;5073856;28;19924;-63
2022/02/27 11:28:06;;;;;;;;;;;8.20;99.90;;;;;;5073925;28;19920;-64
2022/02/27 11:30:34;;;;;;;;;;;8.30;99.90;;;;;;5074326;28;19925;-64
2022/02/27 11:33:05;;;;;;;;;;;8.40;99.90;;;;;;5075330;28;19965;-64
2022/02/27 11:35:42;;;;;;;;;;;8.50;99.90;;;;;;5074473;28;19920;-64
2022/02/27 11:38:09;;;;;;;;;;;8.60;99.90;;;;;;5073856;28;19921;-64
2022/02/27 11:40:42;;;;;;;;;;;8.50;99.90;;;;;;5073790;28;19928;-65
2022/02/27 11:43:08;;;;;;;;;;;8.50;99.90;;;;;;5073387;28;19920;-65
2022/02/27 11:45:54;;;;;;;;;;;8.50;99.90;;;;;;5073197;28;19974;-65
2022/02/27 11:48:46;;;;;;;;;;;8.60;99.90;;;;;;5073832;28;19924;-64
2022/02/27 11:51:32;;;;;;;;;;;8.70;99.90;;;;;;5073310;28;19920;-62
2022/02/27 11:54:04;;;;;;;;;;;8.60;99.90;;;;;;5073119;28;19970;-66
2022/02/27 11:56:32;;;;;;;;;;;8.60;99.90;;;;;;5073264;28;19924;-63
2022/02/27 11:59:00;;;;;;;;;;;8.50;99.90;;;;;;5073339;28;19974;-61
2022/02/27 12:01:35;;;;;;;;;;;8.50;99.90;;;;;;5073239;28;19926;-65
2022/02/27 12:04:17;;;;;;;;;;;8.50;99.90;;;;;;5072964;28;19920;-62
2022/02/27 12:07:13;;;;;;;;;;;8.60;99.90;;;;;;5073270;28;19974;-61
2022/02/27 12:09:56;;;;;;;;;;;8.60;99.90;;;;;;5010532;28;19972;-63
2022/02/27 12:12:47;;;;;;;;;;;8.50;99.90;;;;;;5064326;28;20371;-62
2022/02/27 12:15:23;;;;;;;;;;;8.60;99.90;;;;;;5056783;28;20375;-62
2022/02/27 12:17:50;;;;;;;;;;;8.70;99.90;;;;;;5073032;28;19924;-63
2022/02/27 12:20:40;;;;;;;;;;;8.60;99.90;;;;;;5072836;28;19924;-62
2022/02/27 12:23:08;;;;;;;;;;;8.70;99.90;;;;;;5072791;28;19924;-62
2022/02/27 12:25:35;;;;;;;;;;;8.80;99.90;;;;;;5072553;28;19947;-62
2022/02/27 12:28:02;;;;;;;;;;;8.70;99.90;;;;;;5072789;28;19924;-59
2022/02/27 12:30:30;;;;;;;;;;;8.70;99.90;;;;;;5072119;28;19920;-58
2022/02/27 12:33:06;;;;;;;;;;;8.70;99.90;;;;;;5072680;28;20357;-58
2022/02/27 12:35:32;;;;;;;;;;;8.70;99.90;;;;;;5071924;28;19920;-60
2022/02/27 12:38:02;;;;;;;;;;;8.70;99.90;;;;;;5072671;28;19920;-61
2022/02/27 12:40:29;;;;;;;;;;;8.80;99.90;;;;;;5072793;28;19920;-59
2022/02/27 12:43:00;;;;;;;;;;;8.90;99.90;;;;;;5072472;28;20053;-59
2022/02/27 12:45:28;;;;;;;;;;;9.00;99.90;;;;;;5072344;28;19925;-59
2022/02/27 12:48:07;;;;;;;;;;;9.00;99.90;;;;;;5071824;28;19924;-59
2022/02/27 12:50:41;;;;;;;;;;;8.80;99.90;;;;;;5072842;28;19981;-59
2022/02/27 12:53:08;;;;;;;;;;;8.80;99.90;;;;;;5072546;28;20007;-61
2022/02/27 12:55:34;;;;;;;;;;;8.90;99.90;;;;;;5072143;28;19989;-59
2022/02/27 12:58:03;;;;;;;;;;;8.90;99.90;;;;;;5072680;28;19924;-61
2022/02/27 13:00:32;;;;;;;;;;;9.00;99.90;;;;;;5071892;28;20533;-60
2022/02/27 13:02:59;;;;;;;;;;;9.00;99.90;;;;;;5072348;28;19924;-60
2022/02/27 13:05:31;;;;;;;;;;;9.00;99.90;;;;;;5071741;28;19927;-61
2022/02/27 13:08:02;;;;;;;;;;;9.10;99.90;;;;;;5072104;28;19921;-60
2022/02/27 13:10:28;;;;;;;;;;;9.00;99.90;;;;;;5072379;28;19959;-62
2022/02/27 13:12:55;;;;;;;;;;;9.00;99.90;;;;;;5072030;28;19920;-56
2022/02/27 13:15:22;;;;;;;;;;;9.10;99.90;;;;;;5071942;28;19943;-58
2022/02/27 13:17:49;;;;;;;;;;;8.90;99.90;;;;;;5071918;28;19924;-57
2022/02/27 13:20:18;;;;;;;;;;;8.70;99.90;;;;;;5072137;28;19927;-58
2022/02/27 13:22:48;;;;;;;;;;;8.80;99.90;;;;;;5071729;28;20175;-57
2022/02/27 13:25:15;;;;;;;;;;;8.70;99.90;;;;;;5071364;28;19920;-57
2022/02/27 13:27:44;;;;;;;;;;;8.80;99.90;;;;;;5071090;28;20364;-55
2022/02/27 13:30:12;;;;;;;;;;;8.80;99.90;;;;;;5071960;28;19920;-57
2022/02/27 13:32:40;;;;;;;;;;;8.70;99.90;;;;;;5071697;28;19974;-62
2022/02/27 13:35:07;;;;;;;;;;;8.80;99.90;;;;;;5071203;28;20050;-63
2022/02/27 13:37:35;;;;;;;;;;;8.90;99.90;;;;;;5071765;28;19973;-60
2022/02/27 13:40:05;;;;;;;;;;;9.00;99.90;;;;;;5071320;28;20418;-59
2022/02/27 13:42:32;;;;;;;;;;;9.10;99.90;;;;;;5072067;28;19920;-59
2022/02/27 13:45:00;;;;;;;;;;;9.20;99.90;;;;;;5071435;28;20378;-56
2022/02/27 13:47:28;;;;;;;;;;;9.20;99.90;;;;;;5071929;28;19932;-58
2022/02/27 13:49:55;;;;;;;;;;;9.00;99.90;;;;;;5071411;28;20338;-58
2022/02/27 13:52:23;;;;;;;;;;;9.10;99.90;;;;;;5071575;28;20436;-56
2022/02/27 13:54:50;;;;;;;;;;;9.10;99.90;;;;;;5071337;28;19993;-62
2022/02/27 13:57:18;;;;;;;;;;;9.10;99.90;;;;;;5071961;28;19924;-61
2022/02/27 13:59:47;;;;;;;;;;;8.90;99.90;;;;;;5071977;28;20347;-61
2022/02/27 14:02:30;;;;;;;;;;;9.20;99.90;;;;;;5071783;28;19924;-62
2022/02/27 14:05:06;;;;;;;;;;;9.30;99.90;;;;;;5069202;28;19924;-61
2022/02/27 14:07:33;;;;;;;;;;;9.20;99.90;;;;;;5073051;28;19920;-62
2022/02/27 14:09:59;;;;;;;;;;;9.30;99.90;;;;;;5072382;28;19920;-61
2022/02/27 14:12:27;;;;;;;;;;;9.10;99.90;;;;;;5071512;28;19921;-59
2022/02/27 14:14:54;;;;;;;;;;;9.20;99.90;;;;;;5071048;28;19952;-62
2022/02/27 14:17:22;;;;;;;;;;;9.20;99.90;;;;;;5071208;28;19920;-63
2022/02/27 14:19:50;;;;;;;;;;;9.00;99.90;;;;;;5070938;28;20279;-62
2022/02/27 14:22:16;;;;;;;;;;;9.10;99.90;;;;;;5071691;28;19990;-63
2022/02/27 14:24:47;;;;;;;;;;;9.10;99.90;;;;;;5070744;28;20436;-63
2022/02/27 14:27:15;;;;;;;;;;;9.10;99.90;;;;;;5070994;28;19927;-62
2022/02/27 14:29:44;;;;;;;;;;;9.00;99.90;;;;;;5071243;28;20391;-63
2022/02/27 14:32:24;;;;;;;;;;;9.00;99.90;;;;;;5071293;28;19920;-62
2022/02/27 14:34:50;;;;;;;;;;;9.00;99.90;;;;;;5074542;28;20348;-62
2022/02/27 14:37:17;;;;;;;;;;;9.10;99.90;;;;;;5075229;28;20283;-62